createdAt,value
2018-04-25T00:00:17.777Z,954.92
2018-04-25T00:01:17.803Z,954.91
2018-04-25T00:02:17.876Z,954.93
2018-04-25T00:03:17.848Z,954.93
2018-04-25T00:04:17.872Z,954.91
2018-04-25T00:05:17.899Z,954.89
2018-04-25T00:06:17.918Z,954.89
2018-04-25T00:07:17.941Z,954.87
2018-04-25T00:08:17.965Z,954.85
2018-04-25T00:09:17.988Z,954.85
2018-04-25T00:10:18.012Z,954.8
2018-04-25T00:11:18.033Z,954.81
2018-04-25T00:12:18.058Z,954.78
2018-04-25T00:13:18.080Z,954.84
2018-04-25T00:14:18.112Z,954.83
2018-04-25T00:15:18.127Z,954.85
2018-04-25T00:16:18.152Z,954.79
2018-04-25T00:17:18.223Z,954.79
2018-04-25T00:18:18.200Z,954.79
2018-04-25T00:19:18.223Z,954.78
2018-04-25T00:20:18.241Z,954.76
2018-04-25T00:21:18.265Z,954.76
2018-04-25T00:22:18.288Z,954.73
2018-04-25T00:23:18.314Z,954.77
2018-04-25T00:24:18.378Z,954.75
2018-04-25T00:25:18.357Z,954.73
2018-04-25T00:26:18.424Z,954.75
2018-04-25T00:27:18.404Z,954.79
2018-04-25T00:28:18.429Z,954.74
2018-04-25T00:29:18.449Z,954.71
2018-04-25T00:30:18.473Z,954.73
2018-04-25T00:31:18.494Z,954.73
2018-04-25T00:32:18.569Z,954.72
2018-04-25T00:33:18.544Z,954.75
2018-04-25T00:34:18.564Z,954.74
2018-04-25T00:35:18.587Z,954.72
2018-04-25T00:36:18.609Z,954.73
2018-04-25T00:37:18.632Z,954.65
2018-04-25T00:38:18.655Z,954.7
2018-04-25T00:39:18.679Z,954.69
2018-04-25T00:40:18.701Z,954.71
2018-04-25T00:41:18.724Z,954.68
2018-04-25T00:42:18.747Z,954.68
2018-04-25T00:43:18.770Z,954.67
2018-04-25T00:44:18.792Z,954.66
2018-04-25T00:45:18.820Z,954.64
2018-04-25T00:46:18.837Z,954.65
2018-04-25T00:47:18.862Z,954.67
2018-04-25T00:48:18.935Z,954.66
2018-04-25T00:49:18.907Z,954.65
2018-04-25T00:50:18.939Z,954.68
2018-04-25T00:51:18.953Z,954.63
2018-04-25T00:52:18.976Z,954.63
2018-04-25T00:53:19.099Z,954.66
2018-04-25T00:54:19.021Z,954.63
2018-04-25T00:55:19.043Z,954.69
2018-04-25T00:56:19.069Z,954.65
2018-04-25T00:57:19.089Z,954.65
2018-04-25T00:58:19.172Z,954.64
2018-04-25T00:59:19.137Z,954.65
2018-04-25T01:00:19.158Z,954.64
2018-04-25T01:01:19.181Z,954.7
2018-04-25T01:02:19.204Z,954.71
2018-04-25T01:03:19.228Z,954.67
2018-04-25T01:04:19.250Z,954.69
2018-04-25T01:05:19.273Z,954.69
2018-04-25T01:06:19.296Z,954.7
2018-04-25T01:07:19.318Z,954.69
2018-04-25T01:08:19.342Z,954.71
2018-04-25T01:09:19.365Z,954.68
2018-04-25T01:10:19.388Z,954.65
2018-04-25T01:11:19.411Z,954.64
2018-04-25T01:12:19.434Z,954.65
2018-04-25T01:13:19.508Z,954.61
2018-04-25T01:14:19.480Z,954.63
2018-04-25T01:15:19.502Z,954.65
2018-04-25T01:16:19.525Z,954.66
2018-04-25T01:17:19.546Z,954.62
2018-04-25T01:18:19.574Z,954.65
2018-04-25T01:19:19.593Z,954.63
2018-04-25T01:20:19.622Z,954.62
2018-04-25T01:21:19.656Z,954.63
2018-04-25T01:22:19.659Z,954.65
2018-04-25T01:23:19.684Z,954.63
2018-04-25T01:24:19.706Z,954.58
2018-04-25T01:25:19.728Z,954.59
2018-04-25T01:26:19.749Z,954.61
2018-04-25T01:27:19.773Z,954.62
2018-04-25T01:28:19.847Z,954.62
2018-04-25T01:29:19.818Z,954.61
2018-04-25T01:30:19.841Z,954.63
2018-04-25T01:31:19.864Z,954.63
2018-04-25T01:32:19.887Z,954.64
2018-04-25T01:33:19.957Z,954.66
2018-04-25T01:34:19.931Z,954.67
2018-04-25T01:35:19.953Z,954.66
2018-04-25T01:36:19.977Z,954.63
2018-04-25T01:37:19.997Z,954.69
2018-04-25T01:38:20.070Z,954.69
2018-04-25T01:39:20.040Z,954.65
2018-04-25T01:40:20.063Z,954.67
2018-04-25T01:41:20.084Z,954.69
2018-04-25T01:42:20.107Z,954.69
2018-04-25T01:43:21.331Z,954.63
2018-04-25T01:44:20.154Z,954.66
2018-04-25T01:45:20.173Z,954.62
2018-04-25T01:46:20.196Z,954.65
2018-04-25T01:47:20.218Z,954.64
2018-04-25T01:48:20.241Z,954.67
2018-04-25T01:49:20.414Z,954.68
2018-04-25T01:50:20.287Z,954.63
2018-04-25T01:51:20.308Z,954.63
2018-04-25T01:52:20.329Z,954.66
2018-04-25T01:53:20.353Z,954.7
2018-04-25T01:54:20.378Z,954.7
2018-04-25T01:55:20.397Z,954.63
2018-04-25T01:56:20.417Z,954.69
2018-04-25T01:57:20.440Z,954.67
2018-04-25T01:58:20.461Z,954.69
2018-04-25T01:59:20.493Z,954.62
2018-04-25T02:00:20.508Z,954.68
2018-04-25T02:01:20.530Z,954.66
2018-04-25T02:02:20.550Z,954.63
2018-04-25T02:03:20.572Z,954.65
2018-04-25T02:04:20.645Z,954.63
2018-04-25T02:05:20.616Z,954.67
2018-04-25T02:06:20.638Z,954.65
2018-04-25T02:07:20.660Z,954.65
2018-04-25T02:08:20.682Z,954.66
2018-04-25T02:09:20.705Z,954.64
2018-04-25T02:10:20.725Z,954.61
2018-04-25T02:11:20.748Z,954.61
2018-04-25T02:12:20.775Z,954.66
2018-04-25T02:13:20.791Z,954.65
2018-04-25T02:14:20.812Z,954.59
2018-04-25T02:15:20.834Z,954.58
2018-04-25T02:16:20.856Z,954.62
2018-04-25T02:17:20.877Z,954.62
2018-04-25T02:18:20.899Z,954.62
2018-04-25T02:19:20.977Z,954.6
2018-04-25T02:20:20.944Z,954.59
2018-04-25T02:21:20.963Z,954.63
2018-04-25T02:22:20.985Z,954.63
2018-04-25T02:23:21.009Z,954.67
2018-04-25T02:24:21.029Z,954.59
2018-04-25T02:25:21.051Z,954.59
2018-04-25T02:26:21.071Z,954.62
2018-04-25T02:27:21.093Z,954.61
2018-04-25T02:28:21.115Z,954.6
2018-04-25T02:29:21.137Z,954.6
2018-04-25T02:30:21.163Z,954.55
2018-04-25T02:31:21.182Z,954.58
2018-04-25T02:32:21.202Z,954.58
2018-04-25T02:33:21.224Z,954.54
2018-04-25T02:34:21.397Z,954.6
2018-04-25T02:35:21.265Z,954.59
2018-04-25T02:36:21.301Z,954.62
2018-04-25T02:37:21.310Z,954.62
2018-04-25T02:38:21.333Z,954.63
2018-04-25T02:39:21.353Z,954.6
2018-04-25T02:40:21.375Z,954.67
2018-04-25T02:41:21.396Z,954.67
2018-04-25T02:42:21.419Z,954.64
2018-04-25T02:43:21.440Z,954.66
2018-04-25T02:44:21.461Z,954.7
2018-04-25T02:45:21.484Z,954.67
2018-04-25T02:46:21.504Z,954.71
2018-04-25T02:47:21.527Z,954.72
2018-04-25T02:48:21.549Z,954.72
2018-04-25T02:49:21.620Z,954.73
2018-04-25T02:50:21.598Z,954.73
2018-04-25T02:51:21.612Z,954.73
2018-04-25T02:52:21.633Z,954.76
2018-04-25T02:53:21.660Z,954.74
2018-04-25T02:54:21.677Z,954.74
2018-04-25T02:55:21.698Z,954.74
2018-04-25T02:56:21.721Z,954.74
2018-04-25T02:57:21.742Z,954.72
2018-04-25T02:58:21.778Z,954.71
2018-04-25T02:59:21.785Z,954.69
2018-04-25T03:00:21.805Z,954.71
2018-04-25T03:01:21.826Z,954.7
2018-04-25T03:02:21.846Z,954.66
2018-04-25T03:03:21.870Z,954.68
2018-04-25T03:04:21.940Z,954.7
2018-04-25T03:05:21.920Z,954.68
2018-04-25T03:06:21.936Z,954.65
2018-04-25T03:07:21.956Z,954.66
2018-04-25T03:08:21.975Z,954.67
2018-04-25T03:09:21.998Z,954.67
2018-04-25T03:10:22.019Z,954.64
2018-04-25T03:11:22.045Z,954.64
2018-04-25T03:12:22.062Z,954.66
2018-04-25T03:13:22.084Z,954.63
2018-04-25T03:14:22.105Z,954.57
2018-04-25T03:15:22.126Z,954.56
2018-04-25T03:16:22.162Z,954.59
2018-04-25T03:17:22.177Z,954.58
2018-04-25T03:18:22.195Z,954.58
2018-04-25T03:19:22.265Z,954.52
2018-04-25T03:20:22.239Z,954.52
2018-04-25T03:21:22.259Z,954.55
2018-04-25T03:22:22.280Z,954.47
2018-04-25T03:23:22.300Z,954.55
2018-04-25T03:24:22.323Z,954.49
2018-04-25T03:25:22.343Z,954.51
2018-04-25T03:26:22.362Z,954.46
2018-04-25T03:27:22.387Z,954.4
2018-04-25T03:28:22.409Z,954.41
2018-04-25T03:29:22.428Z,954.42
2018-04-25T03:30:22.451Z,954.37
2018-04-25T03:31:22.475Z,954.36
2018-04-25T03:32:22.494Z,954.41
2018-04-25T03:33:22.516Z,954.35
2018-04-25T03:34:22.586Z,954.37
2018-04-25T03:35:22.560Z,954.38
2018-04-25T03:36:22.580Z,954.37
2018-04-25T03:37:22.600Z,954.41
2018-04-25T03:38:22.624Z,954.4
2018-04-25T03:39:22.662Z,954.39
2018-04-25T03:40:22.672Z,954.38
2018-04-25T03:41:22.687Z,954.41
2018-04-25T03:42:22.709Z,954.4
2018-04-25T03:43:22.731Z,954.32
2018-04-25T03:44:22.752Z,954.34
2018-04-25T03:45:22.771Z,954.39
2018-04-25T03:46:22.795Z,954.39
2018-04-25T03:47:22.816Z,954.45
2018-04-25T03:48:22.836Z,954.4
2018-04-25T03:49:22.907Z,954.41
2018-04-25T03:50:22.879Z,954.4
2018-04-25T03:51:22.901Z,954.42
2018-04-25T03:52:22.922Z,954.47
2018-04-25T03:53:22.943Z,954.49
2018-04-25T03:54:22.969Z,954.54
2018-04-25T03:55:22.986Z,954.53
2018-04-25T03:56:23.007Z,954.56
2018-04-25T03:57:23.029Z,954.56
2018-04-25T03:58:23.049Z,954.62
2018-04-25T03:59:23.071Z,954.56
2018-04-25T04:00:23.092Z,954.64
2018-04-25T04:01:23.113Z,954.67
2018-04-25T04:02:23.136Z,954.67
2018-04-25T04:03:23.156Z,954.74
2018-04-25T04:04:23.176Z,954.71
2018-04-25T04:05:23.199Z,954.69
2018-04-25T04:06:23.270Z,954.76
2018-04-25T04:07:23.240Z,954.74
2018-04-25T04:08:23.262Z,954.77
2018-04-25T04:09:23.285Z,954.78
2018-04-25T04:10:23.307Z,954.75
2018-04-25T04:11:23.326Z,954.75
2018-04-25T04:12:23.347Z,954.76
2018-04-25T04:13:23.370Z,954.74
2018-04-25T04:14:23.389Z,954.79
2018-04-25T04:15:23.412Z,954.78
2018-04-25T04:16:23.433Z,954.76
2018-04-25T04:17:23.458Z,954.79
2018-04-25T04:18:23.476Z,954.8
2018-04-25T04:19:23.499Z,954.83
2018-04-25T04:20:23.519Z,954.81
2018-04-25T04:21:23.591Z,954.86
2018-04-25T04:22:23.566Z,954.83
2018-04-25T04:23:23.584Z,954.88
2018-04-25T04:24:23.605Z,954.87
2018-04-25T04:25:23.627Z,954.86
2018-04-25T04:26:23.647Z,954.89
2018-04-25T04:27:23.668Z,954.84
2018-04-25T04:28:23.689Z,954.85
2018-04-25T04:29:23.710Z,954.89
2018-04-25T04:30:23.733Z,954.91
2018-04-25T04:31:23.755Z,954.84
2018-04-25T04:32:23.777Z,954.87
2018-04-25T04:33:23.797Z,954.9
2018-04-25T04:34:23.819Z,954.86
2018-04-25T04:35:23.841Z,954.91
2018-04-25T04:36:23.911Z,954.86
2018-04-25T04:37:23.883Z,954.86
2018-04-25T04:38:23.905Z,954.89
2018-04-25T04:39:23.926Z,954.83
2018-04-25T04:40:23.949Z,954.87
2018-04-25T04:41:23.970Z,954.85
2018-04-25T04:42:23.992Z,954.86
2018-04-25T04:43:24.011Z,954.84
2018-04-25T04:44:24.110Z,954.89
2018-04-25T04:45:24.054Z,954.9
2018-04-25T04:46:24.077Z,954.89
2018-04-25T04:47:24.097Z,954.94
2018-04-25T04:48:24.121Z,954.96
2018-04-25T04:49:24.205Z,954.91
2018-04-25T04:50:24.164Z,954.95
2018-04-25T04:51:24.235Z,954.92
2018-04-25T04:52:24.206Z,954.92
2018-04-25T04:53:24.227Z,954.92
2018-04-25T04:54:24.248Z,954.97
2018-04-25T04:55:24.270Z,954.91
2018-04-25T04:56:24.293Z,954.92
2018-04-25T04:57:24.314Z,954.96
2018-04-25T04:58:24.334Z,955
2018-04-25T04:59:24.358Z,954.98
2018-04-25T05:00:24.380Z,954.96
2018-04-25T05:01:24.401Z,954.99
2018-04-25T05:02:24.423Z,954.99
2018-04-25T05:03:24.450Z,954.99
2018-04-25T05:04:24.466Z,955.02
2018-04-25T05:05:24.486Z,955.05
2018-04-25T05:06:24.559Z,955.08
2018-04-25T05:07:24.530Z,955.04
2018-04-25T05:08:24.664Z,955
2018-04-25T05:09:24.574Z,954.98
2018-04-25T05:10:24.596Z,955.04
2018-04-25T05:11:25.820Z,955.05
2018-04-25T05:12:24.639Z,955.01
2018-04-25T05:13:24.662Z,955.01
2018-04-25T05:14:24.685Z,955.03
2018-04-25T05:15:24.706Z,955.03
2018-04-25T05:16:24.726Z,955.06
2018-04-25T05:17:24.750Z,955.08
2018-04-25T05:18:24.772Z,955.09
2018-04-25T05:19:24.793Z,955.11
2018-04-25T05:20:24.815Z,955.14
2018-04-25T05:21:24.872Z,955.14
2018-04-25T05:22:24.859Z,955.11
2018-04-25T05:23:24.880Z,955.13
2018-04-25T05:24:24.918Z,955.18
2018-04-25T05:25:24.925Z,955.16
2018-04-25T05:26:24.949Z,955.12
2018-04-25T05:27:24.968Z,955.16
2018-04-25T05:28:24.991Z,955.17
2018-04-25T05:29:25.012Z,955.13
2018-04-25T05:30:25.037Z,955.16
2018-04-25T05:31:25.060Z,955.19
2018-04-25T05:32:25.078Z,955.16
2018-04-25T05:33:25.100Z,955.21
2018-04-25T05:34:25.121Z,955.21
2018-04-25T05:35:25.143Z,955.18
2018-04-25T05:36:25.165Z,955.2
2018-04-25T05:37:25.188Z,955.19
2018-04-25T05:38:25.210Z,955.2
2018-04-25T05:39:25.236Z,955.19
2018-04-25T05:40:25.253Z,955.27
2018-04-25T05:41:25.276Z,955.3
2018-04-25T05:42:25.301Z,955.22
2018-04-25T05:43:25.321Z,955.26
2018-04-25T05:44:25.342Z,955.28
2018-04-25T05:45:25.363Z,955.24
2018-04-25T05:46:25.384Z,955.17
2018-04-25T05:47:25.407Z,955.21
2018-04-25T05:48:25.430Z,955.23
2018-04-25T05:49:25.452Z,955.2
2018-04-25T05:50:25.473Z,955.19
2018-04-25T05:51:25.497Z,955.22
2018-04-25T05:52:25.522Z,955.26
2018-04-25T05:53:25.544Z,955.24
2018-04-25T05:54:25.563Z,955.26
2018-04-25T05:55:25.592Z,955.28
2018-04-25T05:56:25.608Z,955.29
2018-04-25T05:57:25.632Z,955.27
2018-04-25T05:58:25.651Z,955.26
2018-04-25T05:59:25.674Z,955.33
2018-04-25T06:00:25.700Z,955.33
2018-04-25T06:01:25.721Z,955.34
2018-04-25T06:02:25.744Z,955.31
2018-04-25T06:03:25.766Z,955.3
2018-04-25T06:04:25.788Z,955.28
2018-04-25T06:05:25.812Z,955.33
2018-04-25T06:06:25.833Z,955.28
2018-04-25T06:07:25.855Z,955.31
2018-04-25T06:08:25.880Z,955.34
2018-04-25T06:09:25.901Z,955.34
2018-04-25T06:10:25.926Z,955.32
2018-04-25T06:11:25.947Z,955.33
2018-04-25T06:12:25.974Z,955.32
2018-04-25T06:13:25.995Z,955.32
2018-04-25T06:14:26.017Z,955.33
2018-04-25T06:15:26.040Z,955.3
2018-04-25T06:16:26.064Z,955.25
2018-04-25T06:17:26.090Z,955.3
2018-04-25T06:18:26.109Z,955.24
2018-04-25T06:19:26.133Z,955.25
2018-04-25T06:20:26.168Z,955.23
2018-04-25T06:21:26.180Z,955.25
2018-04-25T06:22:26.203Z,955.26
2018-04-25T06:23:26.224Z,955.23
2018-04-25T06:24:26.249Z,955.21
2018-04-25T06:25:26.271Z,955.24
2018-04-25T06:26:26.373Z,955.23
2018-04-25T06:27:26.324Z,955.22
2018-04-25T06:28:26.341Z,955.29
2018-04-25T06:29:26.368Z,955.26
2018-04-25T06:30:26.389Z,955.27
2018-04-25T06:31:26.412Z,955.25
2018-04-25T06:32:26.434Z,955.23
2018-04-25T06:33:26.459Z,955.21
2018-04-25T06:34:26.482Z,955.24
2018-04-25T06:35:26.573Z,955.21
2018-04-25T06:36:26.527Z,955.24
2018-04-25T06:37:26.551Z,955.16
2018-04-25T06:38:26.579Z,955.2
2018-04-25T06:39:26.695Z,955.22
2018-04-25T06:40:26.621Z,955.26
2018-04-25T06:41:26.649Z,955.2
2018-04-25T06:42:26.671Z,955.3
2018-04-25T06:43:26.696Z,955.25
2018-04-25T06:44:26.716Z,955.22
2018-04-25T06:45:26.740Z,955.15
2018-04-25T06:46:26.769Z,955.18
2018-04-25T06:47:26.785Z,955.17
2018-04-25T06:48:26.810Z,955.14
2018-04-25T06:49:26.835Z,955.15
2018-04-25T06:50:26.859Z,955.19
2018-04-25T06:51:26.911Z,955.13
2018-04-25T06:52:26.912Z,955.14
2018-04-25T06:53:26.933Z,955.13
2018-04-25T06:54:26.951Z,955.09
2018-04-25T06:55:26.979Z,955.16
2018-04-25T06:56:27.002Z,955.12
2018-04-25T06:57:27.026Z,955.15
2018-04-25T06:58:27.049Z,955.26
2018-04-25T06:59:27.073Z,955.17
2018-04-25T07:00:27.177Z,955.2
2018-04-25T07:01:27.120Z,955.19
2018-04-25T07:02:27.143Z,955.22
2018-04-25T07:03:27.168Z,955.19
2018-04-25T07:04:27.192Z,955.19
2018-04-25T07:05:27.216Z,955.21
2018-04-25T07:06:27.239Z,955.23
2018-04-25T07:07:27.265Z,955.22
2018-04-25T07:08:27.288Z,955.15
2018-04-25T07:09:27.312Z,955.18
2018-04-25T07:10:27.336Z,955.2
2018-04-25T07:11:27.360Z,955.15
2018-04-25T07:12:27.385Z,955.14
2018-04-25T07:13:27.415Z,955.17
2018-04-25T07:14:27.433Z,955.13
2018-04-25T07:15:27.521Z,955.09
2018-04-25T07:16:27.483Z,955.09
2018-04-25T07:17:27.506Z,955.08
2018-04-25T07:18:27.532Z,955.11
2018-04-25T07:19:27.556Z,955.1
2018-04-25T07:20:27.579Z,955.06
2018-04-25T07:21:27.604Z,955.1
2018-04-25T07:22:27.628Z,955.09
2018-04-25T07:23:27.653Z,955.07
2018-04-25T07:24:27.677Z,955.07
2018-04-25T07:25:27.702Z,955.05
2018-04-25T07:26:27.726Z,955.03
2018-04-25T07:27:27.750Z,955.04
2018-04-25T07:28:27.777Z,954.97
2018-04-25T07:29:27.831Z,954.93
2018-04-25T07:30:27.826Z,954.99
2018-04-25T07:31:27.851Z,954.93
2018-04-25T07:32:27.874Z,954.95
2018-04-25T07:33:27.900Z,954.93
2018-04-25T07:34:27.924Z,954.91
2018-04-25T07:35:27.960Z,955.01
2018-04-25T07:36:27.972Z,954.94
2018-04-25T07:37:27.997Z,954.95
2018-04-25T07:38:28.042Z,954.89
2018-04-25T07:39:28.047Z,954.9
2018-04-25T07:40:28.075Z,954.94
2018-04-25T07:41:28.096Z,954.85
2018-04-25T07:42:28.121Z,954.92
2018-04-25T07:43:28.145Z,954.81
2018-04-25T07:44:28.173Z,954.95
2018-04-25T07:45:28.195Z,954.9
2018-04-25T07:46:28.220Z,954.93
2018-04-25T07:47:28.247Z,954.84
2018-04-25T07:48:28.267Z,954.88
2018-04-25T07:49:28.298Z,954.85
2018-04-25T07:50:28.318Z,954.86
2018-04-25T07:51:28.344Z,954.78
2018-04-25T07:52:28.370Z,954.85
2018-04-25T07:53:28.392Z,954.76
2018-04-25T07:54:28.418Z,954.78
2018-04-25T07:55:28.446Z,954.84
2018-04-25T07:56:28.469Z,954.84
2018-04-25T07:57:28.494Z,954.81
2018-04-25T07:58:28.519Z,954.86
2018-04-25T07:59:28.545Z,954.85
2018-04-25T08:00:28.567Z,954.77
2018-04-25T08:01:28.598Z,954.83
2018-04-25T08:02:28.619Z,954.89
2018-04-25T08:03:28.644Z,954.81
2018-04-25T08:04:28.673Z,954.76
2018-04-25T08:05:28.695Z,954.75
2018-04-25T08:06:28.720Z,954.76
2018-04-25T08:07:28.745Z,954.73
2018-04-25T08:08:28.791Z,954.79
2018-04-25T08:09:28.889Z,954.73
2018-04-25T08:10:28.821Z,954.73
2018-04-25T08:11:28.845Z,954.68
2018-04-25T08:12:28.874Z,954.67
2018-04-25T08:13:28.905Z,954.69
2018-04-25T08:14:28.921Z,954.71
2018-04-25T08:15:28.945Z,954.67
2018-04-25T08:16:28.971Z,954.68
2018-04-25T08:17:28.999Z,954.69
2018-04-25T08:18:29.026Z,954.64
2018-04-25T08:19:29.049Z,954.68
2018-04-25T08:20:29.075Z,954.73
2018-04-25T08:21:29.100Z,954.66
2018-04-25T08:22:29.127Z,954.69
2018-04-25T08:23:29.152Z,954.69
2018-04-25T08:24:29.177Z,954.66
2018-04-25T08:25:29.209Z,954.6
2018-04-25T08:26:29.229Z,954.66
2018-04-25T08:27:29.256Z,954.61
2018-04-25T08:28:29.281Z,954.63
2018-04-25T08:29:29.308Z,954.6
2018-04-25T08:30:29.334Z,954.59
2018-04-25T08:31:29.358Z,954.54
2018-04-25T08:32:29.385Z,954.44
2018-04-25T08:33:29.464Z,954.47
2018-04-25T08:34:29.437Z,954.55
2018-04-25T08:35:29.463Z,954.52
2018-04-25T08:36:29.490Z,954.55
2018-04-25T08:37:29.517Z,954.58
2018-04-25T08:38:29.543Z,954.54
2018-04-25T08:39:29.574Z,954.43
2018-04-25T08:40:29.596Z,954.5
2018-04-25T08:41:29.630Z,954.56
2018-04-25T08:42:29.649Z,954.52
2018-04-25T08:43:29.677Z,954.49
2018-04-25T08:44:29.701Z,954.57
2018-04-25T08:45:29.730Z,954.45
2018-04-25T08:46:29.757Z,954.49
2018-04-25T08:47:29.782Z,954.53
2018-04-25T08:48:29.809Z,954.43
2018-04-25T08:49:29.847Z,954.5
2018-04-25T08:50:29.864Z,954.43
2018-04-25T08:51:29.891Z,954.44
2018-04-25T08:52:29.916Z,954.46
2018-04-25T08:53:29.943Z,954.43
2018-04-25T08:54:29.977Z,954.42
2018-04-25T08:55:29.996Z,954.44
2018-04-25T08:56:30.023Z,954.38
2018-04-25T08:57:30.069Z,954.53
2018-04-25T08:58:30.080Z,954.48
2018-04-25T08:59:30.106Z,954.3
2018-04-25T09:00:30.130Z,954.39
2018-04-25T09:01:30.157Z,954.34
2018-04-25T09:02:30.184Z,954.32
2018-04-25T09:03:30.215Z,954.35
2018-04-25T09:04:30.239Z,954.3
2018-04-25T09:05:30.282Z,954.29
2018-04-25T09:06:30.292Z,954.24
2018-04-25T09:07:30.319Z,954.31
2018-04-25T09:08:30.346Z,954.31
2018-04-25T09:09:30.373Z,954.28
2018-04-25T09:10:30.399Z,954.36
2018-04-25T09:11:30.473Z,954.33
2018-04-25T09:12:30.453Z,954.28
2018-04-25T09:13:30.500Z,954.33
2018-04-25T09:14:30.508Z,954.22
2018-04-25T09:15:30.617Z,954.23
2018-04-25T09:16:30.563Z,954.23
2018-04-25T09:17:30.586Z,954.07
2018-04-25T09:18:30.613Z,954.26
2018-04-25T09:19:30.642Z,954.19
2018-04-25T09:20:30.668Z,954.23
2018-04-25T09:21:30.717Z,954.16
2018-04-25T09:22:30.722Z,954.21
2018-04-25T09:23:30.753Z,954.04
2018-04-25T09:24:30.837Z,954.18
2018-04-25T09:25:30.804Z,954.22
2018-04-25T09:26:30.832Z,954.12
2018-04-25T09:27:30.860Z,954.13
2018-04-25T09:28:30.894Z,954.18
2018-04-25T09:29:30.935Z,954.25
2018-04-25T09:30:30.942Z,954.21
2018-04-25T09:31:30.968Z,954.17
2018-04-25T09:32:30.995Z,954.18
2018-04-25T09:33:31.023Z,954.17
2018-04-25T09:34:31.132Z,954.25
2018-04-25T09:35:31.081Z,954.38
2018-04-25T09:36:31.108Z,954.19
2018-04-25T09:37:31.152Z,954.21
2018-04-25T09:38:31.165Z,954.28
2018-04-25T09:39:31.246Z,954.25
2018-04-25T09:40:31.220Z,954.1
2018-04-25T09:41:31.250Z,954.22
2018-04-25T09:42:31.278Z,954.09
2018-04-25T09:43:31.307Z,954.2
2018-04-25T09:44:31.333Z,954.09
2018-04-25T09:45:31.369Z,954.08
2018-04-25T09:46:31.453Z,954.16
2018-04-25T09:47:31.418Z,954.06
2018-04-25T09:48:31.450Z,954.12
2018-04-25T09:49:31.477Z,953.92
2018-04-25T09:50:31.503Z,954.04
2018-04-25T09:51:31.533Z,954.11
2018-04-25T09:52:31.562Z,954.04
2018-04-25T09:53:31.590Z,954.02
2018-04-25T09:54:31.668Z,954.1
2018-04-25T09:55:31.648Z,953.98
2018-04-25T09:56:31.677Z,954.07
2018-04-25T09:57:31.767Z,954.12
2018-04-25T09:58:31.735Z,954.05
2018-04-25T09:59:31.764Z,954.04
2018-04-25T10:00:31.794Z,954.14
2018-04-25T10:01:31.825Z,953.88
2018-04-25T10:02:31.852Z,954.02
2018-04-25T10:03:31.881Z,954.03
2018-04-25T10:04:31.910Z,954.03
2018-04-25T10:05:31.940Z,953.99
2018-04-25T10:06:31.970Z,953.98
2018-04-25T10:07:32.000Z,953.89
2018-04-25T10:08:32.030Z,953.98
2018-04-25T10:09:32.059Z,953.91
2018-04-25T10:10:32.089Z,953.83
2018-04-25T10:11:32.119Z,953.9
2018-04-25T10:12:32.150Z,953.85
2018-04-25T10:13:32.178Z,953.88
2018-04-25T10:14:32.210Z,953.69
2018-04-25T10:15:32.240Z,953.83
2018-04-25T10:16:32.267Z,953.77
2018-04-25T10:17:32.297Z,953.77
2018-04-25T10:18:32.328Z,953.8
2018-04-25T10:19:32.358Z,953.76
2018-04-25T10:20:32.387Z,953.79
2018-04-25T10:21:32.417Z,953.76
2018-04-25T10:22:32.449Z,954.01
2018-04-25T10:23:32.477Z,953.64
2018-04-25T10:24:32.508Z,953.72
2018-04-25T10:25:32.538Z,953.87
2018-04-25T10:26:32.565Z,953.76
2018-04-25T10:27:32.592Z,953.67
2018-04-25T10:28:32.622Z,953.78
2018-04-25T10:29:32.651Z,953.75
2018-04-25T10:30:32.679Z,953.86
2018-04-25T10:31:32.708Z,953.78
2018-04-25T10:32:32.738Z,953.64
2018-04-25T10:33:32.768Z,953.56
2018-04-25T10:34:32.793Z,953.75
2018-04-25T10:35:32.824Z,953.89
2018-04-25T10:36:32.853Z,953.79
2018-04-25T10:37:32.884Z,953.76
2018-04-25T10:38:32.911Z,953.72
2018-04-25T10:39:32.942Z,953.72
2018-04-25T10:40:33.038Z,953.68
2018-04-25T10:41:33.000Z,953.89
2018-04-25T10:42:33.045Z,953.77
2018-04-25T10:43:33.059Z,953.74
2018-04-25T10:44:33.088Z,953.68
2018-04-25T10:45:33.114Z,953.64
2018-04-25T10:46:33.152Z,953.7
2018-04-25T10:47:33.176Z,953.76
2018-04-25T10:48:33.204Z,953.8
2018-04-25T10:49:33.233Z,953.72
2018-04-25T10:50:33.263Z,953.84
2018-04-25T10:51:33.297Z,953.75
2018-04-25T10:52:33.323Z,953.95
2018-04-25T10:53:33.352Z,953.74
2018-04-25T10:54:33.382Z,953.84
2018-04-25T10:55:33.413Z,953.72
2018-04-25T10:56:33.442Z,953.79
2018-04-25T10:57:33.475Z,953.81
2018-04-25T10:58:33.507Z,953.54
2018-04-25T10:59:33.536Z,953.67
2018-04-25T11:00:33.566Z,953.58
2018-04-25T11:01:33.599Z,953.61
2018-04-25T11:02:33.737Z,953.5
2018-04-25T11:03:33.658Z,953.64
2018-04-25T11:04:33.720Z,953.61
2018-04-25T11:05:33.724Z,953.67
2018-04-25T11:06:33.749Z,953.65
2018-04-25T11:07:33.780Z,953.65
2018-04-25T11:08:33.809Z,953.53
2018-04-25T11:09:33.843Z,953.56
2018-04-25T11:10:33.869Z,953.54
2018-04-25T11:11:33.898Z,953.65
2018-04-25T11:12:33.929Z,953.67
2018-04-25T11:13:33.959Z,953.78
2018-04-25T11:14:33.995Z,953.63
2018-04-25T11:15:34.020Z,953.58
2018-04-25T11:16:34.054Z,953.51
2018-04-25T11:17:34.080Z,953.53
2018-04-25T11:18:34.116Z,953.58
2018-04-25T11:19:34.140Z,953.44
2018-04-25T11:20:34.170Z,953.78
2018-04-25T11:21:34.200Z,953.54
2018-04-25T11:22:34.233Z,953.59
2018-04-25T11:23:34.283Z,953.63
2018-04-25T11:24:34.293Z,953.54
2018-04-25T11:25:34.323Z,953.62
2018-04-25T11:26:34.423Z,953.43
2018-04-25T11:27:34.386Z,953.59
2018-04-25T11:28:34.416Z,953.63
2018-04-25T11:29:34.445Z,953.58
2018-04-25T11:30:34.477Z,953.52
2018-04-25T11:31:34.510Z,953.54
2018-04-25T11:32:34.539Z,953.54
2018-04-25T11:33:34.572Z,953.49
2018-04-25T11:34:34.604Z,953.52
2018-04-25T11:35:34.685Z,953.53
2018-04-25T11:36:34.666Z,953.37
2018-04-25T11:37:34.699Z,953.54
2018-04-25T11:38:34.732Z,953.38
2018-04-25T11:39:34.761Z,953.43
2018-04-25T11:40:34.792Z,953.45
2018-04-25T11:41:34.825Z,953.52
2018-04-25T11:42:34.858Z,953.51
2018-04-25T11:43:34.888Z,953.29
2018-04-25T11:44:34.920Z,953.53
2018-04-25T11:45:34.953Z,953.61
2018-04-25T11:46:34.984Z,953.53
2018-04-25T11:47:35.014Z,953.61
2018-04-25T11:48:35.046Z,953.49
2018-04-25T11:49:35.078Z,953.64
2018-04-25T11:50:35.159Z,953.42
2018-04-25T11:51:35.140Z,953.57
2018-04-25T11:52:35.172Z,953.4
2018-04-25T11:53:35.203Z,953.69
2018-04-25T11:54:35.243Z,953.38
2018-04-25T11:55:35.268Z,953.43
2018-04-25T11:56:35.306Z,953.8
2018-04-25T11:57:35.333Z,953.53
2018-04-25T11:58:35.364Z,953.46
2018-04-25T11:59:35.425Z,953.62
2018-04-25T12:00:35.479Z,953.52
2018-04-25T12:01:35.463Z,953.4
2018-04-25T12:02:35.494Z,953.42
2018-04-25T12:03:35.528Z,953.34
2018-04-25T12:04:35.556Z,953.39
2018-04-25T12:05:35.589Z,953.42
2018-04-25T12:06:35.622Z,953.52
2018-04-25T12:07:35.659Z,953.5
2018-04-25T12:08:35.687Z,953.32
2018-04-25T12:09:35.720Z,953.47
2018-04-25T12:10:35.760Z,953.42
2018-04-25T12:11:35.790Z,953.66
2018-04-25T12:12:35.823Z,953.33
2018-04-25T12:13:35.857Z,953.4
2018-04-25T12:14:35.888Z,953.26
2018-04-25T12:15:35.973Z,953.2
2018-04-25T12:16:35.955Z,953.35
2018-04-25T12:17:35.991Z,953.35
2018-04-25T12:18:36.037Z,953.43
2018-04-25T12:19:36.055Z,953.58
2018-04-25T12:20:36.087Z,953.42
2018-04-25T12:21:36.124Z,953.54
2018-04-25T12:22:36.159Z,953.39
2018-04-25T12:23:36.185Z,953.37
2018-04-25T12:24:36.219Z,953.51
2018-04-25T12:25:36.252Z,953.26
2018-04-25T12:26:36.286Z,953.34
2018-04-25T12:27:36.319Z,953.51
2018-04-25T12:28:36.353Z,953.46
2018-04-25T12:29:36.453Z,953.58
2018-04-25T12:30:36.476Z,953.5